createdAt,value
2017-07-21T00:01:01.347Z,100932.45
2017-07-21T00:03:27.714Z,100935.61
2017-07-21T00:05:54.073Z,100938.77
2017-07-21T00:08:20.438Z,100936.62
2017-07-21T00:10:46.788Z,100939.27
2017-07-21T00:13:13.186Z,100937.59
2017-07-21T00:15:39.583Z,100938.41
2017-07-21T00:18:06.719Z,100938.09
2017-07-21T00:20:33.074Z,100938.59
2017-07-21T00:22:59.450Z,100935.59
2017-07-21T00:25:26.750Z,100936.91
2017-07-21T00:27:53.139Z,100940.48
2017-07-21T00:30:19.548Z,100940.98
2017-07-21T00:32:45.927Z,100939.25
2017-07-21T00:35:12.292Z,100940.25
2017-07-21T00:37:38.694Z,100943.46
2017-07-21T00:40:05.074Z,100941.22
2017-07-21T00:42:31.437Z,100946.11
2017-07-21T00:44:57.811Z,100953.66
2017-07-21T00:47:24.179Z,100951.91
2017-07-21T00:49:51.343Z,100949.36
2017-07-21T00:52:18.476Z,100944.52
2017-07-21T00:54:44.843Z,100943.61
2017-07-21T00:57:11.221Z,100949.00
2017-07-21T00:59:37.582Z,100948.09
2017-07-21T01:02:03.955Z,100944.70
2017-07-21T01:04:30.326Z,100952.66
2017-07-21T01:06:56.689Z,100948.73
2017-07-21T01:09:23.059Z,100947.92
2017-07-21T01:11:49.426Z,100953.31
2017-07-21T01:14:15.786Z,100953.31
2017-07-21T01:16:42.178Z,100954.72
2017-07-21T01:19:08.609Z,100954.72
2017-07-21T01:21:35.010Z,100953.45
2017-07-21T01:24:01.395Z,100950.80
2017-07-21T01:26:27.754Z,100946.09
2017-07-21T01:28:54.118Z,100949.66
2017-07-21T01:31:20.477Z,100947.06
2017-07-21T01:33:46.847Z,100945.33
2017-07-21T01:36:13.198Z,100946.24
2017-07-21T01:38:40.344Z,100952.45
2017-07-21T01:41:06.714Z,100948.57
2017-07-21T01:43:33.851Z,100955.67
2017-07-21T01:46:00.203Z,100964.06
2017-07-21T01:48:26.558Z,100954.94
2017-07-21T01:50:52.934Z,100951.05
2017-07-21T01:53:20.066Z,100951.11
2017-07-21T01:55:46.449Z,100952.52
2017-07-21T01:58:13.591Z,100953.34
2017-07-21T02:00:39.951Z,100947.62
2017-07-21T02:03:06.322Z,100946.81
2017-07-21T02:05:33.443Z,100947.31
2017-07-21T02:07:59.830Z,100945.63
2017-07-21T02:10:26.990Z,100943.39
2017-07-21T02:12:53.358Z,100948.75
2017-07-21T02:15:20.514Z,100946.59
2017-07-21T02:17:48.780Z,100939.98
2017-07-21T02:20:15.148Z,100936.55
2017-07-21T02:22:41.523Z,100937.88
2017-07-21T02:25:07.903Z,100941.86
2017-07-21T02:27:34.271Z,100943.69
2017-07-21T02:30:00.674Z,100944.19
2017-07-21T02:32:27.180Z,100948.25
2017-07-21T02:34:53.537Z,100949.13
2017-07-21T02:37:19.900Z,100944.28
2017-07-21T02:39:46.261Z,100947.34
2017-07-21T02:42:13.410Z,100950.40
2017-07-21T02:44:39.783Z,100950.31
2017-07-21T02:47:06.894Z,100955.29
2017-07-21T02:49:33.359Z,100954.88
2017-07-21T02:51:59.726Z,100949.58
2017-07-21T02:54:26.087Z,100949.22
2017-07-21T02:56:52.448Z,100951.87
2017-07-21T02:59:18.851Z,100955.85
2017-07-21T03:01:45.214Z,100953.20
2017-07-21T03:04:11.575Z,100957.27
2017-07-21T03:06:37.939Z,100951.14
2017-07-21T03:09:05.087Z,100952.05
2017-07-21T03:11:31.462Z,100954.70
2017-07-21T03:13:58.586Z,100954.34
2017-07-21T03:16:24.975Z,100952.20
2017-07-21T03:18:52.102Z,100959.65
2017-07-21T03:21:18.471Z,100958.83
2017-07-21T03:23:44.827Z,100963.77
2017-07-21T03:26:11.186Z,100961.63
2017-07-21T03:28:38.359Z,100963.45
2017-07-21T03:31:05.483Z,100963.95
2017-07-21T03:33:31.844Z,100962.63
2017-07-21T03:35:58.199Z,100968.84
2017-07-21T03:38:24.595Z,100973.31
2017-07-21T03:40:50.974Z,100975.61
2017-07-21T03:43:17.354Z,100981.32
2017-07-21T03:45:43.719Z,100975.28
2017-07-21T03:48:10.084Z,100978.44
2017-07-21T03:50:36.454Z,100976.67
2017-07-21T03:53:02.818Z,100971.87
2017-07-21T03:55:29.179Z,100980.32
2017-07-21T03:57:55.639Z,100982.14
2017-07-21T04:00:22.008Z,100985.30
2017-07-21T04:02:48.363Z,100983.97
2017-07-21T04:05:14.753Z,100983.53
2017-07-21T04:07:41.121Z,100983.61
2017-07-21T04:10:07.494Z,100989.83
2017-07-21T04:12:33.872Z,100999.19
2017-07-21T04:15:00.266Z,100991.74
2017-07-21T04:17:26.638Z,100988.23
2017-07-21T04:19:53.005Z,100986.59
2017-07-21T04:22:19.397Z,100991.89
2017-07-21T04:24:45.767Z,100990.15
2017-07-21T04:27:12.146Z,100984.91
2017-07-21T04:29:38.514Z,100992.45
2017-07-21T04:32:05.637Z,100992.13
2017-07-21T04:34:32.016Z,100993.86
2017-07-21T04:36:58.382Z,100991.80
2017-07-21T04:39:25.533Z,100997.09
2017-07-21T04:41:51.940Z,100997.56
2017-07-21T04:44:19.066Z,100993.59
2017-07-21T04:46:46.203Z,100996.74
2017-07-21T04:49:12.580Z,101001.62
2017-07-21T04:51:39.723Z,101006.10
2017-07-21T04:54:06.103Z,101007.08
2017-07-21T04:56:33.231Z,101010.58
2017-07-21T04:58:59.590Z,101006.16
2017-07-21T05:01:25.957Z,101006.66
2017-07-21T05:03:52.323Z,101004.09
2017-07-21T05:06:19.466Z,101006.34
2017-07-21T05:08:45.848Z,101002.45
2017-07-21T05:11:12.998Z,101002.86
2017-07-21T05:13:40.122Z,101002.01
2017-07-21T05:16:06.501Z,100999.44
2017-07-21T05:18:32.888Z,100997.30
2017-07-21T05:21:00.003Z,100995.97
2017-07-21T05:23:26.394Z,101003.56
2017-07-21T05:25:53.514Z,100997.44
2017-07-21T05:28:19.904Z,101002.33
2017-07-21T05:30:47.046Z,100999.27
2017-07-21T05:33:13.397Z,101002.83
2017-07-21T05:35:39.795Z,101000.17
2017-07-21T05:38:06.150Z,100999.34
2017-07-21T05:40:32.530Z,101002.05
2017-07-21T05:42:58.898Z,101000.73
2017-07-21T05:45:25.307Z,100995.94
2017-07-21T05:47:51.695Z,101000.41
2017-07-21T05:50:18.060Z,101000.00
2017-07-21T05:52:44.444Z,100999.50
2017-07-21T05:55:10.802Z,101001.73
2017-07-21T05:57:37.183Z,101011.50
2017-07-21T06:00:03.565Z,101007.53
2017-07-21T06:02:29.939Z,101015.56
2017-07-21T06:04:56.331Z,101008.50
2017-07-21T06:07:22.715Z,101016.89
2017-07-21T06:09:49.090Z,101015.98
2017-07-21T06:12:15.455Z,101013.39
2017-07-21T06:14:41.834Z,101012.56
2017-07-21T06:17:08.214Z,101013.80
2017-07-21T06:19:34.570Z,101013.47
2017-07-21T06:22:00.962Z,101017.03
2017-07-21T06:24:27.375Z,101018.36
2017-07-21T06:26:53.743Z,101013.06
2017-07-21T06:29:20.110Z,101019.27
2017-07-21T06:31:46.682Z,101012.65
2017-07-21T06:34:13.238Z,101017.03
2017-07-21T06:36:39.799Z,101016.13
2017-07-21T06:39:06.350Z,101016.95
2017-07-21T06:41:32.898Z,101015.70
2017-07-21T06:43:59.270Z,101020.19
2017-07-21T06:46:25.648Z,101019.27
2017-07-21T06:48:52.033Z,101019.27
2017-07-21T06:51:18.387Z,101021.01
2017-07-21T06:53:44.752Z,101021.01
2017-07-21T06:56:11.128Z,101014.80
2017-07-21T06:58:38.285Z,101017.36
2017-07-21T07:01:04.678Z,101020.42
2017-07-21T07:03:31.139Z,101023.92
2017-07-21T07:05:57.631Z,101021.69
2017-07-21T07:08:24.020Z,101020.78
2017-07-21T07:10:50.379Z,101024.66
2017-07-21T07:13:16.744Z,101029.64
2017-07-21T07:15:43.123Z,101032.20
2017-07-21T07:18:09.487Z,101028.23
2017-07-21T07:20:35.859Z,101026.90
2017-07-21T07:23:03.155Z,101031.88
2017-07-21T07:25:29.522Z,101033.61
2017-07-21T07:27:55.896Z,101031.38
2017-07-21T07:30:22.271Z,101029.28
2017-07-21T07:32:49.394Z,101026.63
2017-07-21T07:35:15.755Z,101027.55
2017-07-21T07:37:42.099Z,101022.24
2017-07-21T07:40:08.450Z,101020.92
2017-07-21T07:42:34.827Z,101016.67
2017-07-21T07:45:01.247Z,101012.70
2017-07-21T07:47:27.818Z,101012.65
2017-07-21T07:49:54.351Z,101014.47
2017-07-21T07:52:20.736Z,101010.91
2017-07-21T07:54:47.102Z,101012.15
2017-07-21T07:57:13.495Z,101013.15
2017-07-21T07:59:39.864Z,101008.27
2017-07-21T08:02:06.228Z,101009.17
2017-07-21T08:04:33.382Z,101007.49
2017-07-21T08:06:59.747Z,101008.81
2017-07-21T08:09:26.963Z,101007.91
2017-07-21T08:11:53.328Z,101010.50
2017-07-21T08:14:19.903Z,101006.44
2017-07-21T08:16:46.306Z,101002.38
2017-07-21T08:19:12.833Z,101001.05
2017-07-21T08:21:39.238Z,101004.61
2017-07-21T08:24:05.707Z,101002.05
2017-07-21T08:26:32.138Z,101003.29
2017-07-21T08:28:58.594Z,101006.70
2017-07-21T08:31:24.971Z,101009.36
2017-07-21T08:33:51.334Z,101001.82
2017-07-21T08:36:17.703Z,101003.83
2017-07-21T08:38:44.102Z,101000.27
2017-07-21T08:41:10.501Z,101002.33
2017-07-21T08:43:36.885Z,100995.61
2017-07-21T08:46:03.363Z,100999.59
2017-07-21T08:48:29.806Z,100996.05
2017-07-21T08:50:56.211Z,100997.24
2017-07-21T08:53:22.565Z,100994.59
2017-07-21T08:55:48.948Z,100989.70
2017-07-21T08:58:15.320Z,100989.97
2017-07-21T09:00:41.702Z,100988.97
2017-07-21T09:03:08.830Z,100987.33
2017-07-21T09:05:35.323Z,100984.50
2017-07-21T09:08:01.708Z,100989.38
2017-07-21T09:10:28.070Z,100988.97
2017-07-21T09:12:54.485Z,100992.86
2017-07-21T09:15:20.852Z,100991.89
2017-07-21T09:17:47.238Z,100979.55
2017-07-21T09:20:13.639Z,100977.81
2017-07-21T09:22:40.056Z,100980.29
2017-07-21T09:25:06.423Z,100976.73
2017-07-21T09:27:32.837Z,100975.34
2017-07-21T09:29:59.218Z,100964.66
2017-07-21T09:32:25.591Z,100959.86
2017-07-21T09:34:51.989Z,100962.51
2017-07-21T09:37:18.381Z,100967.30
2017-07-21T09:39:44.769Z,100965.56
2017-07-21T09:42:11.318Z,100963.23
2017-07-21T09:44:37.686Z,100970.72
2017-07-21T09:47:04.055Z,100959.63
2017-07-21T09:49:30.456Z,100961.21
2017-07-21T09:51:56.991Z,100962.27
2017-07-21T09:54:23.346Z,100955.59
2017-07-21T09:56:49.711Z,100949.46
2017-07-21T09:59:16.073Z,100948.55
2017-07-21T10:01:42.444Z,100953.34
2017-07-21T10:04:08.831Z,100942.25
2017-07-21T10:06:35.215Z,100944.16
2017-07-21T10:09:01.812Z,100937.48
2017-07-21T10:11:28.207Z,100937.30
2017-07-21T10:13:54.557Z,100944.19
2017-07-21T10:16:20.980Z,100934.17
2017-07-21T10:18:47.338Z,100936.70
2017-07-21T10:21:13.782Z,100930.64
2017-07-21T10:23:40.163Z,100931.41
2017-07-21T10:26:06.642Z,100929.17
2017-07-21T10:28:33.035Z,100921.13
2017-07-21T10:30:59.383Z,100919.80
2017-07-21T10:33:25.759Z,100915.73
2017-07-21T10:35:52.130Z,100912.38
2017-07-21T10:38:18.575Z,100911.78
2017-07-21T10:40:44.935Z,100906.89
2017-07-21T10:43:11.307Z,100904.65
2017-07-21T10:45:37.711Z,100905.06
2017-07-21T10:48:04.077Z,100903.27
2017-07-21T10:50:30.459Z,100897.52
2017-07-21T10:52:56.814Z,100899.70
2017-07-21T10:55:23.966Z,100896.14
2017-07-21T10:57:50.324Z,100892.98
2017-07-21T11:00:16.703Z,100890.23
2017-07-21T11:02:43.066Z,100887.12
2017-07-21T11:05:09.434Z,100876.52
2017-07-21T11:07:35.834Z,100880.05
2017-07-21T11:10:03.362Z,100877.90
2017-07-21T11:12:29.772Z,100880.05
2017-07-21T11:14:56.134Z,100873.77
2017-07-21T11:17:22.495Z,100875.01
2017-07-21T11:19:48.867Z,100871.95
2017-07-21T11:22:15.224Z,100868.38
2017-07-21T11:24:41.798Z,100863.08
2017-07-21T11:27:08.153Z,100861.75
2017-07-21T11:29:34.646Z,100862.58
2017-07-21T11:32:01.014Z,100861.25
2017-07-21T11:34:27.378Z,100853.39
2017-07-21T11:36:53.758Z,100852.06
2017-07-21T11:39:20.900Z,100845.44
2017-07-21T11:41:48.705Z,100844.88
2017-07-21T11:44:15.124Z,100847.17
2017-07-21T11:46:41.511Z,100841.53
2017-07-21T11:49:07.880Z,100851.31
2017-07-21T11:51:34.263Z,100849.17
2017-07-21T11:54:00.629Z,100845.94
2017-07-21T11:56:27.099Z,100848.78
2017-07-21T11:58:53.461Z,100844.81
2017-07-21T12:01:19.874Z,100836.11
2017-07-21T12:03:46.270Z,100826.23
2017-07-21T12:06:13.448Z,100833.53
2017-07-21T12:08:39.854Z,100829.41
2017-07-21T12:11:06.302Z,100828.99
2017-07-21T12:13:32.695Z,100822.68
2017-07-21T12:15:59.150Z,100826.98
2017-07-21T12:18:25.560Z,100823.26
2017-07-21T12:20:51.943Z,100820.86
2017-07-21T12:23:19.066Z,100822.28
2017-07-21T12:25:45.439Z,100820.45
2017-07-21T12:28:11.815Z,100820.77
2017-07-21T12:30:38.175Z,100818.53
2017-07-21T12:33:05.473Z,100820.36
2017-07-21T12:35:31.855Z,100806.53
2017-07-21T12:37:58.229Z,100807.45
2017-07-21T12:40:25.466Z,100806.13
2017-07-21T12:42:52.025Z,100793.08
2017-07-21T12:45:18.403Z,100800.13
2017-07-21T12:47:44.766Z,100792.93
2017-07-21T12:50:11.130Z,100793.34
2017-07-21T12:52:37.507Z,100793.91
2017-07-21T12:55:03.874Z,100787.78
2017-07-21T12:57:30.258Z,100794.82
2017-07-21T12:59:56.619Z,100795.73
2017-07-21T13:02:23.022Z,100791.75
2017-07-21T13:04:49.390Z,100786.45
2017-07-21T13:07:15.785Z,100779.41
2017-07-21T13:09:42.143Z,100782.56
2017-07-21T13:12:08.502Z,100776.85
2017-07-21T13:14:34.887Z,100778.17
2017-07-21T13:17:02.123Z,100776.95
2017-07-21T13:19:28.517Z,100769.05
2017-07-21T13:21:54.883Z,100769.55
2017-07-21T13:24:21.251Z,100758.03
2017-07-21T13:26:47.616Z,100757.62
2017-07-21T13:29:13.987Z,100758.63
2017-07-21T13:31:40.367Z,100748.02
2017-07-21T13:34:07.498Z,100748.08
2017-07-21T13:36:33.886Z,100746.34
2017-07-21T13:39:01.044Z,100747.16
2017-07-21T13:41:28.191Z,100742.77
2017-07-21T13:43:54.552Z,100730.42
2017-07-21T13:46:21.710Z,100734.91
2017-07-21T13:48:48.073Z,100735.00
2017-07-21T13:51:15.219Z,100733.17
2017-07-21T13:53:41.598Z,100721.65
2017-07-21T13:56:08.739Z,100719.82
2017-07-21T13:58:35.106Z,100720.33
2017-07-21T14:01:02.271Z,100718.68
2017-07-21T14:03:29.418Z,100714.26
2017-07-21T14:05:55.802Z,100702.83
2017-07-21T14:08:22.930Z,100701.09
2017-07-21T14:10:49.306Z,100702.42
2017-07-21T14:13:15.699Z,100698.95
2017-07-21T14:15:42.077Z,100688.75
2017-07-21T14:18:08.443Z,100698.03
2017-07-21T14:20:34.998Z,100693.14
2017-07-21T14:23:01.358Z,100687.92
2017-07-21T14:25:27.746Z,100683.53
2017-07-21T14:27:54.122Z,100675.58
2017-07-21T14:30:20.514Z,100677.31
2017-07-21T14:32:47.661Z,100668.03
2017-07-21T14:35:14.011Z,100667.63
2017-07-21T14:37:40.386Z,100672.92
2017-07-21T14:40:07.523Z,100668.95
2017-07-21T14:42:33.906Z,100662.89
2017-07-21T14:45:01.046Z,100661.50
2017-07-21T14:47:27.446Z,100659.32
2017-07-21T14:49:53.819Z,100651.36
2017-07-21T14:52:20.215Z,100647.89
2017-07-21T14:54:46.646Z,100637.19
2017-07-21T14:57:13.024Z,100645.59
2017-07-21T14:59:40.184Z,100635.95
2017-07-21T15:02:07.312Z,100631.06
2017-07-21T15:04:33.704Z,100623.11
2017-07-21T15:07:00.865Z,100627.59
2017-07-21T15:09:27.999Z,100619.22
2017-07-21T15:11:54.391Z,100614.84
2017-07-21T15:14:20.794Z,100614.84
2017-07-21T15:16:47.190Z,100611.77
2017-07-21T15:19:13.579Z,100602.90
2017-07-21T15:21:39.950Z,100599.43
2017-07-21T15:24:06.335Z,100600.31
2017-07-21T15:26:33.488Z,100590.63
2017-07-21T15:28:59.842Z,100590.63
2017-07-21T15:31:26.202Z,100590.15
2017-07-21T15:33:53.331Z,100587.05
2017-07-21T15:36:19.748Z,100585.31
2017-07-21T15:38:46.127Z,100577.45
2017-07-21T15:41:12.506Z,100587.66
2017-07-21T15:43:38.873Z,100586.23
2017-07-21T15:46:05.258Z,100583.17
2017-07-21T15:48:31.645Z,100580.93
2017-07-21T15:50:58.035Z,100577.87
2017-07-21T15:53:24.410Z,100579.70
2017-07-21T15:55:50.811Z,100572.16
2017-07-21T15:58:17.354Z,100569.00
2017-07-21T16:00:43.707Z,100566.03
2017-07-21T16:03:10.077Z,100565.11
2017-07-21T16:05:36.466Z,100567.36
2017-07-21T16:08:02.847Z,100563.38
2017-07-21T16:10:29.263Z,100558.98
2017-07-21T16:12:55.635Z,100550.62
2017-07-21T16:15:22.007Z,100554.19
2017-07-21T16:17:48.394Z,100545.32
2017-07-21T16:20:14.765Z,100545.80
2017-07-21T16:22:41.122Z,100538.19
2017-07-21T16:25:07.498Z,100536.45
2017-07-21T16:27:33.870Z,100533.39
2017-07-21T16:30:01.020Z,100538.69
2017-07-21T16:32:27.402Z,100532.06
2017-07-21T16:34:53.791Z,100534.71
2017-07-21T16:37:20.172Z,100531.66
2017-07-21T16:39:46.541Z,100526.76
2017-07-21T16:42:12.898Z,100521.52
2017-07-21T16:44:39.271Z,100510.91
2017-07-21T16:47:05.664Z,100508.67
2017-07-21T16:49:32.023Z,100517.55
2017-07-21T16:51:58.403Z,100515.80
2017-07-21T16:54:24.773Z,100517.48
2017-07-21T16:56:51.163Z,100515.30
2017-07-21T16:59:17.544Z,100513.56
2017-07-21T17:01:43.921Z,100509.17
2017-07-21T17:04:10.293Z,100503.37
2017-07-21T17:06:36.656Z,100503.47
2017-07-21T17:09:03.036Z,100506.02
2017-07-21T17:11:30.171Z,100508.67
2017-07-21T17:13:56.555Z,100502.55
2017-07-21T17:16:23.691Z,100503.88
2017-07-21T17:18:50.067Z,100502.55
2017-07-21T17:21:17.230Z,100504.70
2017-07-21T17:23:44.374Z,100502.14
2017-07-21T17:26:10.750Z,100502.55
2017-07-21T17:28:37.908Z,100499.08
2017-07-21T17:31:05.042Z,100503.97
2017-07-21T17:33:31.470Z,100502.14
2017-07-21T17:35:57.889Z,100505.20
2017-07-21T17:38:24.258Z,100506.11
2017-07-21T17:40:50.632Z,100502.64
2017-07-21T17:43:16.997Z,100504.88
2017-07-21T17:45:43.381Z,100501.73
2017-07-21T17:48:10.527Z,100509.27
2017-07-21T17:50:36.931Z,100503.05
2017-07-21T17:53:03.301Z,100506.21
2017-07-21T17:55:29.705Z,100503.97
2017-07-21T17:57:56.076Z,100500.40
2017-07-21T18:00:22.443Z,100507.03
2017-07-21T18:02:48.928Z,100504.88
2017-07-21T18:05:15.492Z,100511.42
2017-07-21T18:07:42.026Z,100505.70
2017-07-21T18:10:08.694Z,100507.95
2017-07-21T18:12:35.152Z,100511.92
2017-07-21T18:15:01.518Z,100522.02
2017-07-21T18:17:27.886Z,100520.80
2017-07-21T18:19:54.264Z,100519.97
2017-07-21T18:22:20.639Z,100528.81
2017-07-21T18:24:47.763Z,100531.91
2017-07-21T18:27:14.156Z,100536.70
2017-07-21T18:29:40.564Z,100533.23
2017-07-21T18:32:06.969Z,100534.97
2017-07-21T18:34:33.354Z,100541.19
2017-07-21T18:36:59.870Z,100538.95
2017-07-21T18:39:26.240Z,100541.19
2017-07-21T18:41:52.622Z,100535.03
2017-07-21T18:44:18.982Z,100531.16
2017-07-21T18:46:45.371Z,100532.98
2017-07-21T18:49:11.734Z,100533.80
2017-07-21T18:51:38.831Z,100530.14
2017-07-21T18:54:05.317Z,100526.16
2017-07-21T18:56:31.830Z,100526.67
2017-07-21T18:58:58.186Z,100522.28
2017-07-21T19:01:24.788Z,100518.71
2017-07-21T19:03:51.163Z,100516.98
2017-07-21T19:06:17.529Z,100515.23
2017-07-21T19:08:43.905Z,100511.27
2017-07-21T19:11:10.270Z,100505.14
2017-07-21T19:13:36.664Z,100502.48
2017-07-21T19:16:03.812Z,100502.48
2017-07-21T19:18:30.168Z,100508.30
2017-07-21T19:20:57.313Z,100504.32
2017-07-21T19:23:23.674Z,100505.64
2017-07-21T19:25:50.056Z,100506.47
2017-07-21T19:28:17.186Z,100508.20
2017-07-21T19:30:43.584Z,100510.34
2017-07-21T19:33:09.959Z,100515.23
2017-07-21T19:35:36.358Z,100519.31
2017-07-21T19:38:02.746Z,100519.22
2017-07-21T19:40:29.475Z,100522.78
2017-07-21T19:42:55.840Z,100524.62
2017-07-21T19:45:22.236Z,100523.29
2017-07-21T19:47:48.598Z,100525.03
2017-07-21T19:50:15.042Z,100518.91
2017-07-21T19:52:41.451Z,100513.66
2017-07-21T19:55:07.932Z,100514.98
2017-07-21T19:57:34.491Z,100510.95
2017-07-21T20:00:00.866Z,100508.77
2017-07-21T20:02:27.238Z,100505.71
2017-07-21T20:04:53.611Z,100503.06
2017-07-21T20:07:20.094Z,100500.00
2017-07-21T20:09:46.649Z,100496.84
2017-07-21T20:12:13.025Z,100490.66
2017-07-21T20:14:39.423Z,100494.19
2017-07-21T20:17:05.817Z,100506.13
2017-07-21T20:19:32.179Z,100509.69
2017-07-21T20:21:59.331Z,100503.98
2017-07-21T20:24:25.694Z,100509.69
2017-07-21T20:26:52.826Z,100521.62
2017-07-21T20:29:19.213Z,100514.98
2017-07-21T20:31:46.358Z,100507.45
2017-07-21T20:34:12.734Z,100515.91
2017-07-21T20:36:39.879Z,100511.67
2017-07-21T20:39:06.234Z,100506.72
2017-07-21T20:41:32.624Z,100510.59
2017-07-21T20:43:59.014Z,100515.73
2017-07-21T20:46:25.406Z,100519.52
2017-07-21T20:48:51.766Z,100517.12
2017-07-21T20:51:18.149Z,100516.97
2017-07-21T20:53:44.507Z,100517.69
2017-07-21T20:56:10.881Z,100521.16
2017-07-21T20:58:37.343Z,100522.42
2017-07-21T21:01:03.727Z,100519.58
2017-07-21T21:03:30.738Z,100512.95
2017-07-21T21:05:57.453Z,100504.58
2017-07-21T21:08:23.916Z,100502.44
2017-07-21T21:10:50.546Z,100509.06
2017-07-21T21:13:16.985Z,100509.98
2017-07-21T21:15:44.916Z,100504.74
2017-07-21T21:18:11.351Z,100505.66
2017-07-21T21:20:37.794Z,100509.64
2017-07-21T21:23:04.212Z,100512.38
2017-07-21T21:25:30.922Z,100512.38
2017-07-21T21:27:58.282Z,100514.13
2017-07-21T21:30:24.944Z,100514.53
2017-07-21T21:32:51.354Z,100514.13
2017-07-21T21:35:17.980Z,100508.41
2017-07-21T21:37:44.974Z,100508.81
2017-07-21T21:40:12.465Z,100503.61
2017-07-21T21:42:39.561Z,100503.61
2017-07-21T21:45:05.986Z,100494.48
2017-07-21T21:47:33.259Z,100490.00
2017-07-21T21:49:59.770Z,100491.33
2017-07-21T21:52:26.194Z,100488.27
2017-07-21T21:54:52.615Z,100490.00
2017-07-21T21:57:21.994Z,100489.53
2017-07-21T21:59:48.733Z,100493.41
2017-07-21T22:02:15.200Z,100487.09
2017-07-21T22:04:42.471Z,100487.60
2017-07-21T22:07:08.859Z,100489.84
2017-07-21T22:09:35.246Z,100495.91
2017-07-21T22:12:01.647Z,100489.58
2017-07-21T22:14:28.044Z,100483.46
2017-07-21T22:16:54.421Z,100480.81
2017-07-21T22:19:20.782Z,100479.98
2017-07-21T22:21:47.163Z,100479.64
2017-07-21T22:24:13.652Z,100480.97
2017-07-21T22:26:40.022Z,100481.06
2017-07-21T22:29:06.402Z,100473.20
2017-07-21T22:31:32.966Z,100479.39
2017-07-21T22:33:59.459Z,100479.90
2017-07-21T22:36:25.827Z,100483.06
2017-07-21T22:38:52.194Z,100484.80
2017-07-21T22:41:18.551Z,100477.44
2017-07-21T22:43:44.927Z,100477.50
2017-07-21T22:46:11.290Z,100479.75
2017-07-21T22:48:37.662Z,100482.40
2017-07-21T22:51:04.039Z,100492.59
2017-07-21T22:53:31.279Z,100498.41
2017-07-21T22:55:57.654Z,100487.39
2017-07-21T22:58:24.035Z,100495.34
2017-07-21T23:00:50.407Z,100493.20
2017-07-21T23:03:16.791Z,100496.73
2017-07-21T23:05:43.410Z,100498.98
2017-07-21T23:08:09.790Z,100498.57
2017-07-21T23:10:36.160Z,100496.02
2017-07-21T23:13:02.568Z,100498.25
2017-07-21T23:15:28.964Z,100496.11
2017-07-21T23:17:56.097Z,100499.64
2017-07-21T23:20:22.479Z,100497.50
2017-07-21T23:22:49.627Z,100506.38
2017-07-21T23:25:15.999Z,100506.38
2017-07-21T23:27:43.133Z,100503.72
2017-07-21T23:30:09.529Z,100501.58
2017-07-21T23:32:36.673Z,100497.59
2017-07-21T23:35:03.833Z,100497.19
2017-07-21T23:37:30.205Z,100502.08
2017-07-21T23:39:57.356Z,100492.39
2017-07-21T23:42:23.731Z,100497.28
2017-07-21T23:44:50.106Z,100490.72
2017-07-21T23:47:16.478Z,100495.95
2017-07-21T23:49:42.833Z,100491.22
2017-07-21T23:52:09.222Z,100488.98
2017-07-21T23:54:35.722Z,100486.84
2017-07-21T23:57:02.106Z,100490.41
2017-07-21T23:59:28.491Z,100488.26
